createdAt,value
2023-04-08T00:01:05.084Z,44.35
2023-04-08T00:03:32.557Z,43.78
2023-04-08T00:06:02.588Z,44.72
2023-04-08T00:08:30.662Z,41.85
2023-04-08T00:10:57.923Z,46.70
2023-04-08T00:13:25.406Z,42.60
2023-04-08T00:15:52.631Z,43.35
2023-04-08T00:18:19.947Z,46.58
2023-04-08T00:20:47.308Z,43.00
2023-04-08T00:23:14.543Z,48.25
2023-04-08T00:25:41.752Z,43.45
2023-04-08T00:28:09.141Z,44.55
2023-04-08T00:30:36.449Z,40.25
2023-04-08T00:33:04.432Z,45.05
2023-04-08T00:35:31.829Z,39.85
2023-04-08T00:37:59.054Z,39.88
2023-04-08T00:40:26.308Z,43.53
2023-04-08T00:42:54.077Z,43.60
2023-04-08T00:45:21.605Z,35.92
2023-04-08T00:47:52.563Z,45.40
2023-04-08T00:50:20.541Z,45.03
2023-04-08T00:52:47.965Z,43.45
2023-04-08T00:55:15.415Z,41.42
2023-04-08T00:57:42.963Z,44.90
2023-04-08T01:00:10.717Z,42.95
2023-04-08T01:02:48.549Z,42.42
2023-04-08T01:05:21.322Z,41.40
2023-04-08T01:07:49.680Z,33.95
2023-04-08T01:10:16.895Z,24.47
2023-04-08T01:12:49.074Z,22.73
2023-04-08T01:15:16.568Z,22.92
2023-04-08T01:17:44.344Z,26.02
2023-04-08T01:20:12.127Z,30.08
2023-04-08T01:22:47.129Z,28.65
2023-04-08T01:25:19.494Z,44.97
2023-04-08T01:27:47.288Z,70.78
2023-04-08T01:30:14.922Z,118.47
2023-04-08T01:32:44.532Z,83.32
2023-04-08T01:35:12.032Z,164.90
2023-04-08T01:37:39.738Z,163.63
2023-04-08T01:40:08.692Z,107.85
2023-04-08T01:42:38.750Z,61.63
2023-04-08T01:45:06.951Z,63.22
2023-04-08T01:47:35.252Z,49.60
2023-04-08T01:50:03.250Z,40.05
2023-04-08T01:52:31.041Z,49.33
2023-04-08T01:54:58.301Z,46.85
2023-04-08T01:57:28.002Z,48.38
2023-04-08T01:59:58.025Z,43.00
2023-04-08T02:02:27.126Z,38.28
2023-04-08T02:04:54.919Z,45.28
2023-04-08T02:07:22.322Z,41.67
2023-04-08T02:09:49.614Z,45.40
2023-04-08T02:12:16.894Z,47.28
2023-04-08T02:14:44.410Z,49.72
2023-04-08T02:17:44.472Z,46.88
2023-04-08T02:20:16.625Z,56.90
2023-04-08T02:22:54.118Z,57.95
2023-04-08T02:25:24.359Z,64.95
2023-04-08T02:27:53.078Z,52.13
2023-04-08T02:30:20.593Z,59.45
2023-04-08T02:32:48.615Z,62.55
2023-04-08T02:35:16.597Z,65.30
2023-04-08T02:37:45.260Z,59.17
2023-04-08T02:40:25.758Z,67.20
2023-04-08T02:42:53.057Z,63.20
2023-04-08T02:45:20.705Z,63.03
2023-04-08T02:47:50.379Z,69.70
2023-04-08T02:50:17.608Z,84.70
2023-04-08T02:52:45.048Z,76.07
2023-04-08T02:55:12.375Z,75.85
2023-04-08T02:57:40.489Z,90.55
2023-04-08T03:00:08.392Z,92.28
2023-04-08T03:02:35.954Z,151.15
2023-04-08T03:05:05.375Z,109.47
2023-04-08T03:09:59.750Z,146.70
2023-04-08T03:12:29.807Z,148.43
2023-04-08T03:14:57.006Z,157.05
2023-04-08T03:17:24.264Z,171.77
2023-04-08T03:19:51.558Z,163.65
2023-04-08T03:22:18.781Z,163.68
2023-04-08T03:24:46.238Z,162.18
2023-04-08T03:27:14.173Z,143.80
2023-04-08T03:29:41.474Z,139.73
2023-04-08T03:32:08.872Z,154.13
2023-04-08T03:34:36.129Z,143.02
2023-04-08T03:37:03.514Z,121.57
2023-04-08T03:39:31.348Z,157.10
2023-04-08T03:42:00.824Z,152.73
2023-04-08T03:44:28.177Z,112.57
2023-04-08T03:46:55.581Z,141.50
2023-04-08T03:49:22.827Z,159.95
2023-04-08T03:51:50.123Z,146.43
2023-04-08T03:54:17.407Z,149.35
2023-04-08T03:56:44.641Z,164.77
2023-04-08T03:59:11.855Z,136.35
2023-04-08T04:01:40.649Z,157.25
2023-04-08T04:04:09.219Z,191.63
2023-04-08T04:06:36.647Z,161.63
2023-04-08T04:09:03.944Z,147.85
2023-04-08T04:11:31.126Z,179.18
2023-04-08T04:13:58.342Z,153.18
2023-04-08T04:16:25.790Z,146.55
2023-04-08T04:18:54.019Z,146.32
2023-04-08T04:21:21.973Z,120.20
2023-04-08T04:23:49.193Z,116.18
2023-04-08T04:26:16.483Z,112.68
2023-04-08T04:28:43.667Z,94.75
2023-04-08T04:31:18.718Z,78.65
2023-04-08T04:33:47.244Z,71.32
2023-04-08T04:36:14.934Z,62.92
2023-04-08T04:38:45.384Z,86.93
2023-04-08T04:41:12.713Z,94.35
2023-04-08T04:43:39.948Z,85.07
2023-04-08T04:46:09.013Z,63.65
2023-04-08T04:48:36.438Z,85.47
2023-04-08T04:51:03.745Z,92.60
2023-04-08T04:53:31.685Z,95.20
2023-04-08T04:56:01.281Z,66.13
2023-04-08T04:58:28.805Z,73.80
2023-04-08T05:00:56.389Z,66.88
2023-04-08T05:03:23.816Z,80.88
2023-04-08T05:05:54.859Z,95.05
2023-04-08T05:08:22.195Z,123.18
2023-04-08T05:10:52.307Z,79.25
2023-04-08T05:13:19.721Z,87.07
2023-04-08T05:15:47.041Z,79.47
2023-04-08T05:18:14.454Z,98.05
2023-04-08T05:20:42.884Z,82.47
2023-04-08T05:23:10.196Z,96.45
2023-04-08T05:25:37.414Z,68.30
2023-04-08T05:28:04.942Z,97.20
2023-04-08T05:30:32.201Z,90.65
2023-04-08T05:33:00.608Z,66.47
2023-04-08T05:35:28.339Z,68.45
2023-04-08T05:37:55.754Z,76.93
2023-04-08T05:40:23.059Z,70.72
2023-04-08T05:42:50.375Z,80.00
2023-04-08T05:45:17.652Z,58.88
2023-04-08T05:47:45.033Z,83.60
2023-04-08T05:50:12.395Z,50.83
2023-04-08T05:52:43.669Z,63.53
2023-04-08T05:55:11.290Z,46.15
2023-04-08T05:57:38.561Z,38.05
2023-04-08T06:00:08.137Z,43.28
2023-04-08T06:02:37.607Z,67.07
2023-04-08T06:05:05.882Z,50.95
2023-04-08T06:07:33.951Z,50.20
2023-04-08T06:10:01.229Z,92.55
2023-04-08T06:12:28.557Z,88.97
2023-04-08T06:14:56.314Z,56.47
2023-04-08T06:17:23.596Z,68.03
2023-04-08T06:19:50.890Z,73.05
2023-04-08T06:22:18.157Z,53.17
2023-04-08T06:24:45.330Z,64.30
2023-04-08T06:27:13.005Z,69.18
2023-04-08T06:29:42.743Z,72.00
2023-04-08T06:32:10.626Z,61.40
2023-04-08T06:34:38.267Z,61.65
2023-04-08T06:37:06.409Z,59.35
2023-04-08T06:39:34.118Z,63.55
2023-04-08T06:42:01.661Z,61.25
2023-04-08T06:44:58.654Z,64.18
2023-04-08T06:47:26.156Z,53.42
2023-04-08T06:49:54.366Z,56.30
2023-04-08T06:52:21.825Z,52.20
2023-04-08T06:54:49.054Z,51.40
2023-04-08T06:57:16.287Z,53.38
2023-04-08T06:59:43.477Z,52.92
2023-04-08T07:02:10.703Z,50.60
2023-04-08T07:04:37.908Z,46.20
2023-04-08T07:07:05.140Z,44.08
2023-04-08T07:09:32.575Z,46.33
2023-04-08T07:11:59.882Z,48.13
2023-04-08T07:14:27.195Z,42.78
2023-04-08T07:16:54.596Z,37.25
2023-04-08T07:19:22.681Z,35.08
2023-04-08T07:21:49.977Z,34.70
2023-04-08T07:24:17.364Z,36.85
2023-04-08T07:26:44.595Z,33.38
2023-04-08T07:29:11.817Z,27.98
2023-04-08T07:31:39.007Z,27.73
2023-04-08T07:34:06.216Z,28.67
2023-04-08T07:36:33.494Z,31.55
2023-04-08T07:39:00.909Z,25.35
2023-04-08T07:41:28.316Z,25.25
2023-04-08T07:43:56.154Z,24.55
2023-04-08T07:46:23.419Z,27.27
2023-04-08T07:48:52.121Z,25.75
2023-04-08T07:51:20.424Z,25.10
2023-04-08T07:53:48.308Z,23.25
2023-04-08T07:56:16.303Z,24.70
2023-04-08T07:58:43.953Z,25.42
2023-04-08T08:01:18.979Z,23.95
2023-04-08T08:03:47.857Z,23.17
2023-04-08T08:06:15.784Z,24.05
2023-04-08T08:08:43.139Z,20.55
2023-04-08T08:11:10.475Z,21.90
2023-04-08T08:13:37.769Z,21.02
2023-04-08T08:16:08.971Z,18.38
2023-04-08T08:18:37.002Z,19.70
2023-04-08T08:21:04.556Z,19.42
2023-04-08T08:23:31.901Z,21.23
2023-04-08T08:26:11.944Z,16.85
2023-04-08T08:28:39.618Z,19.20
2023-04-08T08:31:07.041Z,17.00
2023-04-08T08:33:34.630Z,17.48
2023-04-08T08:36:02.098Z,18.40
2023-04-08T08:38:29.377Z,17.52
2023-04-08T08:40:58.401Z,22.08
2023-04-08T08:43:26.210Z,16.67
2023-04-08T08:45:53.698Z,16.35
2023-04-08T08:48:21.270Z,18.38
2023-04-08T08:50:48.617Z,16.60
2023-04-08T08:53:16.147Z,15.63
2023-04-08T08:58:13.676Z,16.95
2023-04-08T09:00:42.511Z,17.75
2023-04-08T09:03:17.048Z,15.43
2023-04-08T09:05:55.443Z,18.10
2023-04-08T09:08:26.202Z,14.97
2023-04-08T09:10:54.135Z,19.98
2023-04-08T09:13:23.632Z,14.35
2023-04-08T09:16:05.173Z,14.38
2023-04-08T09:18:32.887Z,16.70
2023-04-08T09:21:01.467Z,14.35
2023-04-08T09:23:38.146Z,15.18
2023-04-08T09:26:09.415Z,17.98
2023-04-08T09:28:36.791Z,17.23
2023-04-08T09:31:19.693Z,15.20
2023-04-08T09:33:48.739Z,17.13
2023-04-08T09:36:17.189Z,13.95
2023-04-08T09:38:44.595Z,73.15
2023-04-08T09:41:14.899Z,13.73
2023-04-08T09:43:44.088Z,14.50
2023-04-08T09:48:41.415Z,17.02
2023-04-08T09:51:09.348Z,14.10
2023-04-08T09:53:44.330Z,16.67
2023-04-08T09:56:15.363Z,13.98
2023-04-08T09:58:47.909Z,15.77
2023-04-08T10:01:16.462Z,12.88
2023-04-08T10:03:54.654Z,16.52
2023-04-08T10:06:24.133Z,12.88
2023-04-08T10:08:52.744Z,13.30
2023-04-08T10:11:20.505Z,12.65
2023-04-08T10:13:52.246Z,12.95
2023-04-08T10:16:22.415Z,14.27
2023-04-08T10:18:53.490Z,13.23
2023-04-08T10:21:51.510Z,15.15
2023-04-08T10:24:24.146Z,16.33
2023-04-08T10:26:52.778Z,14.50
2023-04-08T10:29:21.409Z,13.35
2023-04-08T10:31:50.690Z,13.38
2023-04-08T10:34:18.560Z,15.40
2023-04-08T10:36:46.280Z,13.98
2023-04-08T10:39:14.725Z,13.32
2023-04-08T10:41:45.812Z,13.68
2023-04-08T10:44:31.124Z,14.93
2023-04-08T10:46:58.438Z,14.10
2023-04-08T10:49:33.339Z,12.23
2023-04-08T10:52:00.811Z,14.43
2023-04-08T10:54:28.483Z,12.07
2023-04-08T10:56:55.772Z,11.63
2023-04-08T10:59:30.647Z,12.00
2023-04-08T11:01:58.467Z,13.45
2023-04-08T11:04:26.417Z,13.23
2023-04-08T11:06:54.122Z,13.23
2023-04-08T11:09:21.428Z,12.35
2023-04-08T11:11:48.720Z,12.85
2023-04-08T11:14:19.592Z,10.75
2023-04-08T11:16:46.849Z,14.15
2023-04-08T11:19:14.969Z,12.30
2023-04-08T11:21:42.314Z,12.00
2023-04-08T11:24:13.389Z,14.20
2023-04-08T11:26:41.647Z,12.23
2023-04-08T11:29:14.125Z,12.47
2023-04-08T11:31:42.218Z,11.90
2023-04-08T11:34:09.622Z,13.17
2023-04-08T11:36:37.545Z,11.88
2023-04-08T11:39:08.791Z,11.75
2023-04-08T11:41:40.458Z,11.73
2023-04-08T11:44:08.098Z,12.48
2023-04-08T11:46:36.207Z,13.68
2023-04-08T11:49:07.968Z,10.00
2023-04-08T11:51:36.260Z,10.98
2023-04-08T11:54:07.419Z,11.63
2023-04-08T11:56:45.915Z,11.40
2023-04-08T11:59:13.643Z,13.65
2023-04-08T12:01:40.907Z,18.88
2023-04-08T12:04:10.404Z,19.45
2023-04-08T12:06:37.829Z,14.43
2023-04-08T12:09:05.070Z,15.18
2023-04-08T12:11:32.425Z,15.57
2023-04-08T12:13:59.650Z,11.02
2023-04-08T12:16:27.268Z,11.35
2023-04-08T12:18:54.632Z,10.93
2023-04-08T12:21:21.926Z,10.48
2023-04-08T12:23:49.485Z,11.02
2023-04-08T12:26:17.247Z,8.90
2023-04-08T12:28:44.514Z,10.43
2023-04-08T12:31:11.768Z,9.40
2023-04-08T12:33:39.037Z,11.25
2023-04-08T12:36:06.454Z,10.07
2023-04-08T12:38:33.795Z,13.10
2023-04-08T12:41:01.100Z,9.43
2023-04-08T12:43:28.380Z,9.57
2023-04-08T12:45:55.572Z,10.55
2023-04-08T12:48:22.838Z,11.30
2023-04-08T12:50:50.417Z,9.48
2023-04-08T12:53:18.137Z,11.27
2023-04-08T12:55:46.417Z,12.15
2023-04-08T12:58:16.892Z,11.20
2023-04-08T13:00:46.683Z,9.77
2023-04-08T13:03:17.458Z,11.38
2023-04-08T13:05:45.149Z,10.35
2023-04-08T13:08:12.528Z,10.50
2023-04-08T13:10:39.841Z,10.38
2023-04-08T13:13:07.109Z,12.77
2023-04-08T13:15:34.453Z,12.50
2023-04-08T13:18:01.826Z,11.93
2023-04-08T13:20:29.129Z,10.68
2023-04-08T13:22:56.406Z,12.85
2023-04-08T13:25:23.873Z,11.38
2023-04-08T13:27:51.073Z,9.63
2023-04-08T13:30:18.536Z,10.48
2023-04-08T13:32:45.892Z,10.48
2023-04-08T13:35:13.174Z,12.15
2023-04-08T13:37:40.389Z,11.82
2023-04-08T13:40:08.803Z,11.50
2023-04-08T13:42:36.174Z,10.68
2023-04-08T13:45:03.465Z,12.02
2023-04-08T13:47:31.158Z,9.93
2023-04-08T13:49:58.481Z,10.63
2023-04-08T13:52:25.720Z,10.63
2023-04-08T13:54:53.057Z,9.75
2023-04-08T13:57:20.305Z,8.13
2023-04-08T13:59:47.593Z,10.60
2023-04-08T14:02:14.913Z,9.75
2023-04-08T14:04:43.237Z,9.40
2023-04-08T14:07:10.658Z,11.15
2023-04-08T14:09:37.909Z,10.65
2023-04-08T14:12:05.797Z,9.52
2023-04-08T14:14:33.036Z,8.45
2023-04-08T14:17:00.857Z,10.63
2023-04-08T14:19:28.373Z,10.43
2023-04-08T14:21:55.683Z,10.18
2023-04-08T14:24:22.909Z,9.38
2023-04-08T14:26:50.401Z,8.07
2023-04-08T14:29:17.734Z,8.93
2023-04-08T14:31:45.018Z,8.13
2023-04-08T14:34:12.293Z,8.52
2023-04-08T14:36:39.563Z,8.57
2023-04-08T14:39:06.871Z,9.32
2023-04-08T14:41:34.044Z,10.75
2023-04-08T14:44:01.355Z,8.95
2023-04-08T14:46:29.148Z,8.98
2023-04-08T14:48:56.879Z,6.55
2023-04-08T14:51:24.138Z,7.25
2023-04-08T14:53:51.372Z,9.75
2023-04-08T14:56:18.608Z,10.45
2023-04-08T14:58:45.889Z,12.15
2023-04-08T15:01:13.187Z,10.63
2023-04-08T15:03:40.526Z,11.05
2023-04-08T15:06:08.031Z,7.63
2023-04-08T15:08:35.616Z,8.18
2023-04-08T15:11:02.870Z,9.00
2023-04-08T15:13:30.332Z,9.77
2023-04-08T15:15:57.626Z,11.20
2023-04-08T15:18:24.957Z,13.93
2023-04-08T15:20:52.296Z,11.90
2023-04-08T15:23:19.535Z,14.15
2023-04-08T15:25:47.078Z,14.20
2023-04-08T15:28:14.360Z,10.50
2023-04-08T15:30:41.718Z,8.45
2023-04-08T15:33:08.980Z,9.18
2023-04-08T15:35:38.474Z,15.25
2023-04-08T15:38:05.813Z,9.85
2023-04-08T15:40:36.003Z,9.07
2023-04-08T15:43:03.903Z,10.85
2023-04-08T15:45:31.811Z,16.67
2023-04-08T15:47:59.649Z,17.33
2023-04-08T15:50:29.898Z,16.17
2023-04-08T15:52:57.172Z,19.45
2023-04-08T15:55:24.507Z,15.18
2023-04-08T15:57:54.144Z,14.95
2023-04-08T16:00:21.450Z,17.10
2023-04-08T16:02:48.834Z,16.02
2023-04-08T16:05:16.499Z,16.67
2023-04-08T16:07:43.722Z,18.95
2023-04-08T16:10:11.234Z,19.05
2023-04-08T16:12:38.556Z,18.75
2023-04-08T16:15:06.086Z,22.75
2023-04-08T16:17:33.403Z,21.75
2023-04-08T16:20:00.661Z,23.73
2023-04-08T16:22:28.222Z,21.08
2023-04-08T16:24:55.469Z,20.35
2023-04-08T16:27:22.889Z,23.02
2023-04-08T16:29:50.220Z,19.95
2023-04-08T16:32:17.503Z,29.83
2023-04-08T16:34:45.097Z,25.33
2023-04-08T16:37:14.355Z,24.75
2023-04-08T16:39:42.332Z,23.20
2023-04-08T16:42:10.089Z,21.90
2023-04-08T16:44:37.632Z,21.17
2023-04-08T16:47:04.883Z,22.38
2023-04-08T16:49:32.073Z,22.02
2023-04-08T16:51:59.310Z,21.95
2023-04-08T16:54:26.533Z,21.85
2023-04-08T16:56:53.791Z,25.25
2023-04-08T16:59:21.104Z,23.85
2023-04-08T17:01:48.424Z,25.38
2023-04-08T17:04:15.896Z,24.02
2023-04-08T17:06:43.269Z,26.67
2023-04-08T17:09:11.236Z,22.63
2023-04-08T17:11:38.462Z,19.33
2023-04-08T17:14:05.794Z,21.40
2023-04-08T17:16:33.292Z,23.45
2023-04-08T17:19:00.567Z,25.30
2023-04-08T17:21:28.082Z,24.48
2023-04-08T17:23:56.699Z,21.35
2023-04-08T17:26:23.942Z,23.02
2023-04-08T17:28:51.169Z,23.92
2023-04-08T17:31:18.486Z,20.23
2023-04-08T17:33:45.840Z,21.15
2023-04-08T17:36:13.356Z,20.77
2023-04-08T17:38:41.179Z,19.85
2023-04-08T17:41:11.311Z,21.05
2023-04-08T17:43:38.683Z,22.23
2023-04-08T17:46:06.022Z,25.25
2023-04-08T17:48:33.230Z,25.20
2023-04-08T17:51:04.122Z,21.33
2023-04-08T17:53:32.150Z,26.77
2023-04-08T17:55:59.598Z,29.88
2023-04-08T17:58:27.162Z,26.45
2023-04-08T18:00:54.457Z,27.70
2023-04-08T18:03:21.890Z,24.30
2023-04-08T18:05:49.381Z,21.25
2023-04-08T18:08:16.775Z,25.23
2023-04-08T18:10:45.218Z,24.77
2023-04-08T18:13:14.139Z,26.58
2023-04-08T18:15:41.444Z,24.48
2023-04-08T18:18:08.690Z,26.15
2023-04-08T18:20:36.612Z,24.23
2023-04-08T18:23:04.469Z,23.63
2023-04-08T18:25:32.632Z,25.70
2023-04-08T18:28:00.037Z,24.50
2023-04-08T18:30:27.602Z,24.88
2023-04-08T18:32:54.904Z,28.63
2023-04-08T18:35:22.228Z,25.55
2023-04-08T18:37:49.634Z,26.33
2023-04-08T18:40:17.699Z,25.65
2023-04-08T18:42:45.186Z,25.95
2023-04-08T18:45:12.540Z,27.88
2023-04-08T18:47:39.842Z,27.23
2023-04-08T18:50:07.789Z,26.17
2023-04-08T18:52:35.093Z,29.88
2023-04-08T18:55:02.737Z,33.50
2023-04-08T18:57:29.987Z,28.55
2023-04-08T18:59:57.196Z,34.45
2023-04-08T19:02:24.532Z,30.83
2023-04-08T19:04:52.184Z,30.33
2023-04-08T19:07:19.441Z,29.10
2023-04-08T19:09:46.817Z,29.30
2023-04-08T19:12:14.068Z,28.67
2023-04-08T19:14:42.106Z,28.23
2023-04-08T19:17:09.826Z,30.42
2023-04-08T19:19:37.141Z,32.22
2023-04-08T19:22:06.022Z,26.48
2023-04-08T19:24:33.697Z,30.15
2023-04-08T19:27:01.209Z,30.42
2023-04-08T19:29:32.824Z,31.52
2023-04-08T19:32:00.153Z,32.25
2023-04-08T19:34:27.431Z,31.65
2023-04-08T19:36:54.874Z,29.48
2023-04-08T19:39:23.554Z,29.33
2023-04-08T19:41:52.686Z,27.63
2023-04-08T19:44:20.011Z,27.95
2023-04-08T19:46:47.650Z,27.85
2023-04-08T19:49:14.940Z,24.70
2023-04-08T19:51:42.200Z,26.77
2023-04-08T19:54:09.431Z,29.40
2023-04-08T19:56:37.105Z,29.70
2023-04-08T19:59:04.322Z,32.95
2023-04-08T20:01:35.649Z,29.20
2023-04-08T20:04:03.251Z,28.67
2023-04-08T20:06:30.514Z,30.77
2023-04-08T20:09:05.128Z,31.95
2023-04-08T20:11:32.837Z,28.17
2023-04-08T20:14:00.118Z,32.75
2023-04-08T20:16:27.644Z,34.58
2023-04-08T20:18:54.944Z,29.40
2023-04-08T20:21:22.481Z,31.20
2023-04-08T20:23:50.524Z,31.25
2023-04-08T20:26:18.016Z,28.67
2023-04-08T20:28:46.107Z,31.13
2023-04-08T20:31:14.300Z,31.27
2023-04-08T20:33:45.441Z,36.45
2023-04-08T20:36:13.575Z,32.65
2023-04-08T20:38:42.444Z,32.63
2023-04-08T20:41:09.960Z,32.08
2023-04-08T20:43:37.362Z,29.83
2023-04-08T20:46:04.648Z,33.92
2023-04-08T20:48:33.151Z,33.97
2023-04-08T20:51:00.463Z,33.88
2023-04-08T20:53:28.098Z,32.58
2023-04-08T20:55:55.423Z,31.58
2023-04-08T20:58:22.694Z,28.52
2023-04-08T21:00:49.961Z,31.95
2023-04-08T21:03:17.462Z,32.22
2023-04-08T21:05:44.829Z,32.72
2023-04-08T21:08:12.107Z,30.48
2023-04-08T21:10:39.351Z,31.05
2023-04-08T21:13:06.836Z,31.02
2023-04-08T21:15:34.169Z,32.15
2023-04-08T21:18:01.549Z,33.88
2023-04-08T21:20:28.920Z,30.90
2023-04-08T21:22:56.228Z,29.67
2023-04-08T21:25:24.842Z,31.58
2023-04-08T21:27:52.068Z,33.05
2023-04-08T21:30:21.245Z,29.85
2023-04-08T21:35:15.988Z,36.95
2023-04-08T21:37:43.233Z,32.47
2023-04-08T21:40:10.657Z,29.98
2023-04-08T21:42:37.956Z,32.72
2023-04-08T21:45:06.371Z,30.52
2023-04-08T21:47:33.739Z,35.33
2023-04-08T21:50:01.072Z,34.10
2023-04-08T21:52:28.410Z,39.30
2023-04-08T21:54:55.633Z,30.75
2023-04-08T21:57:23.337Z,35.17
2023-04-08T21:59:50.697Z,33.97
2023-04-08T22:02:18.052Z,32.83
2023-04-08T22:04:45.306Z,33.45
2023-04-08T22:07:12.714Z,32.28
2023-04-08T22:09:40.324Z,33.13
2023-04-08T22:12:07.585Z,37.95
2023-04-08T22:14:34.830Z,38.38
2023-04-08T22:17:02.115Z,36.40
2023-04-08T22:19:29.353Z,40.28
2023-04-08T22:21:56.603Z,37.63
2023-04-08T22:24:23.927Z,35.35
2023-04-08T22:26:53.427Z,40.70
2023-04-08T22:29:20.813Z,41.00
2023-04-08T22:31:48.060Z,38.17
2023-04-08T22:34:15.672Z,39.60
2023-04-08T22:36:43.016Z,40.10
2023-04-08T22:39:10.518Z,38.85
2023-04-08T22:41:37.804Z,35.75
2023-04-08T22:44:05.029Z,38.00
2023-04-08T22:46:32.329Z,39.03
2023-04-08T22:48:59.652Z,42.15
2023-04-08T22:51:26.912Z,38.80
2023-04-08T22:53:54.215Z,40.97
2023-04-08T22:56:21.521Z,42.75
2023-04-08T22:58:48.770Z,38.25
2023-04-08T23:01:17.368Z,41.75
2023-04-08T23:03:45.430Z,38.63
2023-04-08T23:06:12.687Z,40.30
2023-04-08T23:08:40.038Z,40.65
2023-04-08T23:11:07.642Z,40.50
2023-04-08T23:13:35.277Z,43.05
2023-04-08T23:16:02.848Z,41.53
2023-04-08T23:18:30.191Z,38.30
2023-04-08T23:20:58.370Z,43.78
2023-04-08T23:23:26.057Z,39.03
2023-04-08T23:25:55.714Z,45.60
2023-04-08T23:28:23.465Z,44.55
2023-04-08T23:30:50.928Z,44.20
2023-04-08T23:33:18.157Z,41.47
2023-04-08T23:35:45.459Z,42.92
2023-04-08T23:38:12.780Z,41.47
2023-04-08T23:40:40.218Z,40.50
2023-04-08T23:43:07.594Z,40.63
2023-04-08T23:45:34.981Z,43.50
2023-04-08T23:48:02.408Z,45.42
2023-04-08T23:50:29.664Z,46.53
2023-04-08T23:52:56.861Z,46.08
2023-04-08T23:55:24.079Z,42.80
2023-04-08T23:57:53.659Z,46.25
